Collado Mediano, Spain
Current Conditions -  °F | °C
As of 7:00 PM on Friday 28 Nov 2014 (Local Time) from LECV Reporting Station
Light Rain Light Rain  
Wind Chill: 39°   Ceiling: 1000
Heat Index: 45°   Visibility: 3mi
Dew Point: 45°   Wind: 10mph
Humidity: 100%   Direction: 90°E
Pressure: 29.23"   Gusts: NA
Location:  40.69°N, 4.02°W
Report Text: LECV 281800Z 09009KT 5000 -RA SCT005 BKN010 07/07 Q0990
Loading
Personal Weather Stations






























Interactive Weather Map New forecast layout! Learn more

10-Day Weather Forecast

Advertisements
Track Severe Weather on mobile